x

Great Slave Lake (45141) Wave Buoy

9:00pm - Tue 30th Sep 2014 All times are UTC.

  • Sig Wave height 2.6ft
  • Peak Period 4s
  • Wind
    13mph, 20mph gusts
  • Sea Temp 49°f
  • Air Temp 45°f
  • Sea Pressure 1005.9mb

More Historic Weather Station data

Upgrade to MSW Pro to gain access to the past 30 days of data for over 8000 Wavebouys and Weather Stations around the globe.

Join Pro

Comparision Forecast

View Surf forecast
   
Tue 09/30 9:00pm 2.5ft 4s 13 20 mph 1005.9mb 49f 45f
8:00pm  -   -  16
mph
1005.7mb 49f 44f
7:00pm 2.5ft 14s 16 20 mph 1005.3mb 49f 42f
6:00pm  -   -  16
mph
1005mb 49f 42f
5:00pm 3ft 4s 18 22 mph 1004.5mb 49f 41f
4:00pm 3.5ft 4s 18 22 mph 1003.9mb 49f 41f
2:00pm 3.5ft 4s 16 20 mph 1003.3mb 49f 44f
1:00pm 2.5ft 3s 18 20 mph 1002.2mb 49f 45f
12:00pm 2.5ft 13s 13 18 mph 1001.6mb 49f 46f
11:00am 2.5ft 15s 16 20 mph 1001.1mb 49f 47f
10:00am 2.5ft 15s 18 20 mph 1000.4mb 49f 47f
9:00am 2.5ft 14s 16 18 mph - 49f 47f
8:00am 2.5ft 15s 16 20 mph 999.6mb 49f 47f
7:00am 2.5ft 15s 16 18 mph 999mb 49f 48f
6:00am 2ft 15s 18 22 mph 998.6mb 49f 48f
5:00am 1ft 4s 13 16 mph 998.1mb 49f 50f
4:00am 1ft 4s 11 13 mph 997.8mb 49f 51f
3:00am 1.3ft 5s 9
mph
997.8mb 49f 52f
2:00am 1.6ft 5s 9
mph
997.4mb 49f 53f
1:00am 2ft 5s 13
mph
997mb 50f 54f
12:00am 2ft 5s 4
mph
996.6mb 50f 54f
Mon 09/29 11:00pm 2.5ft 5s 4 7 mph 996mb 50f 53f
10:00pm 2.5ft 5s 4 7 mph 995.5mb 50f 54f
9:00pm 3ft 5s 7
mph
995.6mb 50f 52f
8:00pm 3ft 4s 9 13 mph 995.8mb 50f 51f
7:00pm 2.5ft 15s 13 18 mph 996.2mb 49f 50f
6:00pm 2.5ft 14s 18 20 mph 996.6mb 49f 49f
5:00pm 2ft 14s 16 18 mph 997.1mb 49f 49f
4:00pm 2ft 14s 13 16 mph 997.9mb 49f 49f
3:00pm 2.5ft 15s 13 16 mph 999mb 49f 49f
2:00pm 1.6ft 14s 16 18 mph 999.5mb 49f 50f
1:00pm 0.7ft 2s 16 18 mph 1000mb 49f 49f
12:00pm 0.7ft 2s 11 13 mph 1001.3mb 49f 50f
11:00am 0.3ft 2s 9 13 mph 1002mb 49f 49f
10:00am 0.3ft 2s 9 11 mph 1002.8mb 49f 49f
9:00am 0.3ft 2s 7 9 mph 1003.3mb 49f 49f
8:00am 0.3ft 2s 9
mph
1004mb 49f 49f
7:00am 0.3ft 2s 9 11 mph 1004.6mb 49f 49f
6:00am 0.7ft 3s 4 7 mph 1005.1mb 49f 49f
5:00am 0.7ft 3s 4 7 mph 1005.3mb 49f 50f
4:00am 1ft 15s 2 4 mph 1005.6mb 49f 51f
3:00am 1ft 15s 7 9 mph 1006.2mb 49f 51f
2:00am 1.3ft 3s 9
mph
1006.4mb 49f 51f
1:00am 1.6ft 4s 9
mph
1006.9mb 49f 51f
12:00am 1.6ft 14s 7 9 mph 1007.4mb 49f 51f
Sun 09/28 11:00pm 1.6ft 4s 9 11 mph 1007.5mb 50f 51f
10:00pm 2ft 4s 9 13 mph 1007.9mb 50f 52f
9:00pm 2.5ft 4s 7 9 mph 1009mb 50f 51f
8:00pm 2.5ft 14s 11 13 mph 1009.4mb 49f 51f
7:00pm 3ft 5s 11 13 mph 1010mb 49f 50f
6:00pm  -   -  16
mph
1010.6mb - 49f
4:00pm 4ft 5s 18 22 mph 1012.1mb 49f 47f
3:00pm 4.5ft 4s 22 29 mph 1012.7mb 49f 47f
2:00pm 4ft 4s 25 27 mph 1013.5mb 49f 47f
1:00pm 4ft 4s 22 27 mph 1014.6mb 49f 46f
12:00pm 4.5ft 4s 25 29 mph 1015.5mb 49f 47f
11:00am 4ft 4s 22 27 mph 1016.4mb 49f 47f
10:00am 4ft 5s 25 29 mph 1017.1mb 49f 47f
8:00am 3.5ft 4s 22 27 mph 1018.9mb 49f 48f
7:00am  -   -  20
mph
1019.9mb - 49f
6:00am 2ft 15s 16 20 mph 1020.4mb 49f 50f
5:00am 2ft 12s 16 18 mph 1020.7mb 49f 51f
4:00am 2ft 15s 16 20 mph 1020.9mb 49f 51f
3:00am 1.3ft 3s 13 18 mph 1021.2mb 49f 51f
2:00am 1ft 15s 11 13 mph 1021.8mb 49f 51f
1:00am 0.7ft 2s 13 16 mph 1022.3mb 49f 51f
12:00am 0.7ft 2s 9 11 mph 1023.2mb 49f 50f
Sat 09/27 11:00pm 0.7ft 2s 11 13 mph 1023.9mb 49f 51f
10:00pm 0.3ft 2s 9 11 mph 1024.6mb 49f 49f
9:00pm 0.7ft 2s 9
mph
1024.9mb 50f 48f
8:00pm 0.3ft 2s 9
mph
1025.2mb 49f 47f
7:00pm 0.7ft 2s 7 9 mph 1025.8mb 49f 47f
6:00pm 0.7ft 14s 4
mph
1026.1mb 49f 46f
5:00pm 0.7ft 15s 4 7 mph 1026mb 49f 46f
4:00pm 1ft 15s 7 9 mph 1025.8mb 49f 46f
3:00pm 1ft 15s 9
mph
1025.8mb 49f 46f
2:00pm 1ft 15s 9
mph
1025.5mb 49f 47f
1:00pm 1ft 4s 9 11 mph 1025.2mb 49f 47f
12:00pm 1ft 4s 9 11 mph 1025.2mb 49f 47f
11:00am 1ft 4s 7
mph
1025mb 49f 47f
10:00am 1ft 4s 9
mph
1024.5mb 49f 47f
9:00am 1ft 4s 9
mph
1024.4mb 49f 47f
8:00am 1.3ft 4s 7 9 mph 1024.1mb 49f 47f
7:00am 1.3ft 4s 7 9 mph 1023.8mb 49f 47f
6:00am 1ft 15s 7 9 mph 1023.7mb 49f 47f
5:00am 1ft 4s 9
mph
1023.5mb 49f 47f
4:00am 1ft 15s 7 9 mph 1023.4mb 49f 47f
3:00am 1.3ft 14s 9
mph
1023.1mb 49f 47f
2:00am 1ft 15s 9
mph
1023mb 49f 47f
1:00am 1.3ft 3s 9 11 mph 1022.9mb 49f 46f
12:00am 1.3ft 15s 7 9 mph 1022.6mb 49f 46f